ESUT

Hemavan Airport

Sweden
METAR ESUT 271120Z AUTO 29005KT 240V340 9999 NCD 14/M00 Q1031
Observed Flight Rules
May-27 @ 11:20 UTC (40 minutes ago) Visual Flight Rules
Wind Visibility Clouds
290° at 5 knots 10,000+ meters
  • Clear skies
Temperatures Readings
Current 14°C / 57°F
Dewpoint 0°C / 32°F
Humidity 39%
Altimeter 30.44" Hg
Pressure 1031 hPa
Elevation 463
METAR ESUT 271120Z AUTO 29005KT 240V340 9999 NCD 14/M00 Q1031
Observed Flight Rules
May-27 @ 11:20 UTC
(40 minutes ago)
VFR
Wind Visibility
290° at 5 knots 10,000+ meters
Clouds
  • Clear skies
Temperature Dewpoint
14°C / 57°F 0°C / 32°F
Humidity Altimeter Pressure
39% 30.44" Hg 1031 hPa